createdAt,value
2019-04-22T00:01:12.945Z,8.43
2019-04-22T00:03:44.805Z,8.30
2019-04-22T00:06:38.199Z,8.20
2019-04-22T00:09:03.745Z,7.90
2019-04-22T00:14:01.210Z,8.47
2019-04-22T00:16:38.838Z,8.00
2019-04-22T00:24:04.507Z,7.70
2019-04-22T00:26:37.991Z,7.43
2019-04-22T00:29:10.962Z,8.33
2019-04-22T00:31:32.740Z,7.70
2019-04-22T00:34:03.458Z,8.27
2019-04-22T00:36:35.235Z,8.03
2019-04-22T00:39:07.385Z,7.50
2019-04-22T00:41:42.556Z,8.88
2019-04-22T00:44:15.731Z,7.80
2019-04-22T00:46:42.418Z,8.37
2019-04-22T00:49:55.416Z,7.70
2019-04-22T00:51:44.332Z,7.40
2019-04-22T00:54:08.571Z,8.37
2019-04-22T00:56:35.728Z,8.70
2019-04-22T00:59:07.065Z,7.83
2019-04-22T01:01:37.137Z,7.72
2019-04-22T01:04:16.254Z,8.17
2019-04-22T01:06:41.362Z,8.50
2019-04-22T01:09:13.682Z,6.63
2019-04-22T01:11:37.618Z,8.53
2019-04-22T01:14:06.434Z,8.40
2019-04-22T01:16:43.020Z,8.23
2019-04-22T01:19:14.751Z,8.25
2019-04-22T01:21:39.167Z,8.83
2019-04-22T01:24:09.211Z,8.03
2019-04-22T01:26:36.206Z,7.40
2019-04-22T01:29:05.104Z,8.30
2019-04-22T01:31:27.531Z,9.03
2019-04-22T01:34:05.480Z,8.23
2019-04-22T01:36:43.115Z,7.70
2019-04-22T01:39:16.711Z,8.23
2019-04-22T01:41:58.085Z,8.67
2019-04-22T01:46:53.991Z,8.57
2019-04-22T01:49:21.488Z,7.83
2019-04-22T01:54:29.768Z,8.83
2019-04-22T01:56:52.638Z,8.43
2019-04-22T01:59:15.655Z,8.60
2019-04-22T02:04:25.600Z,8.13
2019-04-22T02:11:57.196Z,7.90
2019-04-22T02:14:29.170Z,9.03
2019-04-22T02:16:58.067Z,7.53
2019-04-22T02:20:31.593Z,8.10
2019-04-22T02:21:56.602Z,9.43
2019-04-22T02:24:26.421Z,9.10
2019-04-22T02:34:37.568Z,8.37
2019-04-22T02:36:56.279Z,8.33
2019-04-22T02:39:24.423Z,7.70
2019-04-22T02:42:02.942Z,8.30
2019-04-22T02:44:31.331Z,8.60
2019-04-22T02:51:52.325Z,7.70
2019-04-22T02:54:38.327Z,7.60
2019-04-22T02:57:03.342Z,8.20
2019-04-22T02:59:31.367Z,8.15
2019-04-22T03:01:57.953Z,8.60
2019-04-22T03:04:22.823Z,8.43
2019-04-22T03:06:49.499Z,8.63
2019-04-22T03:09:28.653Z,8.08
2019-04-22T03:12:09.645Z,8.13
2019-04-22T03:14:30.304Z,8.20
2019-04-22T03:17:03.537Z,8.63
2019-04-22T03:19:47.694Z,7.53
2019-04-22T03:22:06.119Z,7.80
2019-04-22T03:27:01.108Z,7.53
2019-04-22T03:33:09.511Z,8.07
2019-04-22T03:37:48.836Z,7.80
2019-04-22T03:40:16.201Z,8.10
2019-04-22T03:42:46.177Z,7.87
2019-04-22T03:45:22.396Z,8.30
2019-04-22T03:47:41.514Z,8.30
2019-04-22T03:50:17.396Z,7.30
2019-04-22T03:52:43.073Z,6.97
2019-04-22T03:55:07.426Z,7.80
2019-04-22T04:00:17.392Z,7.13
2019-04-22T04:05:19.656Z,6.80
2019-04-22T04:10:23.388Z,7.20
2019-04-22T04:12:47.123Z,6.70
2019-04-22T04:15:18.994Z,6.70
2019-04-22T04:17:50.136Z,8.33
2019-04-22T04:37:52.129Z,7.13
2019-04-22T04:47:49.269Z,7.00
2019-04-22T04:50:32.091Z,7.23
2019-04-22T04:53:08.348Z,6.57
2019-04-22T05:02:55.618Z,6.40
2019-04-22T05:10:26.494Z,7.40
2019-04-22T05:15:21.185Z,6.10
2019-04-22T05:20:29.455Z,7.20
2019-04-22T05:22:46.083Z,6.97
2019-04-22T05:25:18.573Z,6.53
2019-04-22T05:32:44.572Z,5.90
2019-04-22T05:35:14.414Z,6.60
2019-04-22T05:37:45.542Z,5.50
2019-04-22T05:40:16.275Z,6.47
2019-04-22T05:42:39.629Z,6.00
2019-04-22T05:47:41.698Z,6.20
2019-04-22T05:50:15.128Z,5.90
2019-04-22T05:52:47.138Z,6.50
2019-04-22T05:55:26.797Z,5.90
2019-04-22T05:57:51.138Z,6.60
2019-04-22T06:00:26.867Z,5.23
2019-04-22T06:02:55.654Z,6.90
2019-04-22T06:05:17.493Z,6.25
2019-04-22T06:07:45.704Z,6.57
2019-04-22T06:10:31.087Z,6.17
2019-04-22T06:12:55.276Z,7.00
2019-04-22T06:15:27.166Z,7.20
2019-04-22T06:18:06.477Z,7.07
2019-04-22T06:20:32.565Z,6.40
2019-04-22T06:25:38.790Z,6.37
2019-04-22T06:28:11.845Z,5.80
2019-04-22T06:30:48.725Z,5.80
2019-04-22T06:33:00.851Z,5.77
2019-04-22T06:35:54.599Z,6.30
2019-04-22T06:40:32.840Z,5.97
2019-04-22T06:45:37.299Z,6.27
2019-04-22T06:48:06.737Z,6.43
2019-04-22T06:50:40.127Z,6.60
2019-04-22T06:53:05.822Z,5.93
2019-04-22T06:58:04.560Z,6.10
2019-04-22T07:00:36.948Z,6.10
2019-04-22T07:03:30.094Z,6.20
2019-04-22T07:05:43.420Z,6.33
2019-04-22T07:08:30.485Z,6.47
2019-04-22T07:10:53.160Z,5.83
2019-04-22T07:13:11.249Z,5.83
2019-04-22T07:18:11.708Z,6.60
2019-04-22T07:20:45.865Z,5.80
2019-04-22T07:23:13.871Z,6.13
2019-04-22T07:25:41.317Z,5.53
2019-04-22T07:28:13.963Z,5.10
2019-04-22T07:30:38.974Z,5.40
2019-04-22T07:33:21.076Z,6.00
2019-04-22T07:35:54.903Z,6.00
2019-04-22T07:38:22.287Z,5.70
2019-04-22T07:40:45.748Z,5.80
2019-04-22T07:43:20.083Z,5.93
2019-04-22T07:45:44.022Z,5.30
2019-04-22T07:48:22.555Z,5.87
2019-04-22T07:53:12.580Z,4.63
2019-04-22T07:55:46.741Z,5.03
2019-04-22T07:58:19.548Z,5.50
2019-04-22T08:00:43.807Z,5.07
2019-04-22T08:03:18.509Z,5.03
2019-04-22T08:08:20.090Z,4.50
2019-04-22T08:10:49.631Z,4.50
2019-04-22T08:13:19.193Z,4.73
2019-04-22T08:15:53.979Z,4.60
2019-04-22T08:18:22.200Z,4.70
2019-04-22T08:20:47.229Z,4.55
2019-04-22T08:23:24.300Z,4.87
2019-04-22T08:25:49.559Z,4.63
2019-04-22T08:28:26.529Z,5.13
2019-04-22T08:30:53.601Z,4.60
2019-04-22T08:36:07.247Z,4.20
2019-04-22T08:38:34.237Z,4.23
2019-04-22T08:41:08.669Z,4.20
2019-04-22T08:43:36.323Z,4.37
2019-04-22T08:45:58.462Z,4.23
2019-04-22T08:48:30.832Z,4.67
2019-04-22T08:51:07.582Z,3.77
2019-04-22T08:53:35.855Z,4.37
2019-04-22T08:56:06.266Z,4.62
2019-04-22T08:58:31.240Z,4.33
2019-04-22T09:01:05.289Z,3.90
2019-04-22T09:03:36.137Z,4.33
2019-04-22T09:06:06.500Z,3.70
2019-04-22T09:08:38.741Z,3.63
2019-04-22T09:11:07.047Z,4.03
2019-04-22T09:13:37.134Z,4.70
2019-04-22T09:16:08.905Z,4.40
2019-04-22T09:18:34.788Z,4.65
2019-04-22T09:21:14.208Z,3.58
2019-04-22T09:23:37.229Z,4.10
2019-04-22T09:26:03.475Z,4.70
2019-04-22T09:28:38.067Z,4.13
2019-04-22T09:31:06.080Z,4.07
2019-04-22T09:33:34.979Z,4.50
2019-04-22T09:36:09.489Z,4.03
2019-04-22T09:41:09.879Z,4.00
2019-04-22T09:43:41.045Z,4.30
2019-04-22T09:46:21.588Z,3.73
2019-04-22T09:48:37.500Z,4.03
2019-04-22T09:51:07.005Z,4.30
2019-04-22T09:53:36.115Z,4.43
2019-04-22T09:56:03.959Z,4.90
2019-04-22T09:58:41.632Z,6.83
2019-04-22T10:03:54.627Z,4.40
2019-04-22T10:06:23.173Z,6.17
2019-04-22T10:09:01.746Z,4.90
2019-04-22T10:11:24.036Z,4.00
2019-04-22T10:16:20.194Z,4.17
2019-04-22T10:21:31.509Z,4.37
2019-04-22T10:23:47.165Z,4.57
2019-04-22T10:26:21.775Z,4.90
2019-04-22T10:28:53.123Z,4.40
2019-04-22T10:31:29.428Z,4.40
2019-04-22T10:33:44.057Z,4.90
2019-04-22T10:35:53.373Z,4.83
2019-04-22T10:38:22.098Z,4.83
2019-04-22T10:40:52.469Z,4.33
2019-04-22T10:43:21.212Z,4.53
2019-04-22T10:45:50.262Z,4.73
2019-04-22T10:48:18.882Z,4.47
2019-04-22T10:50:48.867Z,5.33
2019-04-22T10:53:19.649Z,4.87
2019-04-22T10:55:50.965Z,4.50
2019-04-22T10:58:18.808Z,4.90
2019-04-22T11:00:47.456Z,4.67
2019-04-22T11:03:18.154Z,4.17
2019-04-22T11:05:48.297Z,4.80
2019-04-22T11:08:25.953Z,4.83
2019-04-22T11:11:03.632Z,4.57
2019-04-22T11:13:18.006Z,3.70
2019-04-22T11:15:46.836Z,4.30
2019-04-22T11:18:15.920Z,4.70
2019-04-22T11:20:44.413Z,4.17
2019-04-22T11:23:14.289Z,4.50
2019-04-22T11:25:43.964Z,3.70
2019-04-22T11:28:13.677Z,4.10
2019-04-22T11:30:42.902Z,4.13
2019-04-22T11:33:12.100Z,4.30
2019-04-22T11:35:41.768Z,4.20
2019-04-22T11:38:12.807Z,4.13
2019-04-22T11:40:45.988Z,4.50
2019-04-22T11:43:12.396Z,4.27
2019-04-22T11:45:41.590Z,4.87
2019-04-22T11:48:11.169Z,4.20
2019-04-22T11:50:40.139Z,4.67
2019-04-22T11:53:08.954Z,7.80
2019-04-22T11:55:37.742Z,3.97
2019-04-22T11:58:06.815Z,4.08
2019-04-22T12:00:37.167Z,4.30
2019-04-22T12:03:07.273Z,4.40
2019-04-22T12:05:35.902Z,3.80
2019-04-22T12:08:04.948Z,4.28
2019-04-22T12:10:41.118Z,3.80
2019-04-22T12:13:04.119Z,3.95
2019-04-22T12:15:35.076Z,3.90
2019-04-22T12:18:03.820Z,3.83
2019-04-22T12:20:32.977Z,4.30
2019-04-22T12:23:03.124Z,3.92
2019-04-22T12:25:44.365Z,4.60
2019-04-22T12:28:03.289Z,4.08
2019-04-22T12:30:33.393Z,4.30
2019-04-22T12:33:02.330Z,3.90
2019-04-22T12:35:32.549Z,3.67
2019-04-22T12:38:06.224Z,3.60
2019-04-22T12:40:41.178Z,3.75
2019-04-22T12:43:04.692Z,4.00
2019-04-22T12:45:32.028Z,3.95
2019-04-22T12:48:00.438Z,3.80
2019-04-22T12:50:33.848Z,3.90
2019-04-22T12:53:06.877Z,3.20
2019-04-22T12:55:30.296Z,3.60
2019-04-22T12:58:00.946Z,3.75
2019-04-22T13:00:30.210Z,3.80
2019-04-22T13:02:58.930Z,3.37
2019-04-22T13:05:27.399Z,3.90
2019-04-22T13:07:55.926Z,3.80
2019-04-22T13:10:26.018Z,3.50
2019-04-22T13:12:55.161Z,3.70
2019-04-22T13:15:23.952Z,4.27
2019-04-22T13:18:03.200Z,4.10
2019-04-22T13:20:24.344Z,4.10
2019-04-22T13:22:52.887Z,3.37
2019-04-22T13:25:26.032Z,3.90
2019-04-22T13:27:53.359Z,3.87
2019-04-22T13:30:23.307Z,3.57
2019-04-22T13:32:52.722Z,3.57
2019-04-22T13:35:22.290Z,3.67
2019-04-22T13:37:53.074Z,3.37
2019-04-22T13:40:23.199Z,3.57
2019-04-22T13:42:53.427Z,4.20
2019-04-22T13:45:22.388Z,3.80
2019-04-22T13:48:10.992Z,3.83
2019-04-22T13:51:01.660Z,4.47
2019-04-22T13:55:53.244Z,3.80
2019-04-22T13:58:04.315Z,3.40
2019-04-22T14:00:34.606Z,3.10
2019-04-22T14:03:22.517Z,3.53
2019-04-22T14:05:58.673Z,3.07
2019-04-22T14:08:27.083Z,3.47
2019-04-22T14:10:57.868Z,3.53
2019-04-22T14:13:25.920Z,3.13
2019-04-22T14:15:55.014Z,3.70
2019-04-22T14:18:23.457Z,3.43
2019-04-22T14:20:51.869Z,4.00
2019-04-22T14:23:20.729Z,3.33
2019-04-22T14:25:50.843Z,3.27
2019-04-22T14:28:21.436Z,3.10
2019-04-22T14:30:50.593Z,4.70
2019-04-22T14:33:20.308Z,3.67
2019-04-22T14:35:49.961Z,3.73
2019-04-22T14:38:18.542Z,3.03
2019-04-22T14:40:48.218Z,3.30
2019-04-22T14:43:40.384Z,4.23
2019-04-22T14:46:17.686Z,3.57
2019-04-22T14:48:45.779Z,2.90
2019-04-22T14:51:09.065Z,3.60
2019-04-22T14:53:36.883Z,3.52
2019-04-22T14:55:48.560Z,2.93
2019-04-22T14:58:17.401Z,3.33
2019-04-22T15:00:46.108Z,3.23
2019-04-22T15:03:15.622Z,2.80
2019-04-22T15:05:44.235Z,3.30
2019-04-22T15:08:13.173Z,3.60
2019-04-22T15:10:42.233Z,3.40
2019-04-22T15:13:11.618Z,3.50
2019-04-22T15:15:59.018Z,3.23
2019-04-22T15:18:31.644Z,3.13
2019-04-22T15:21:09.063Z,3.77
2019-04-22T15:23:38.495Z,2.63
2019-04-22T15:26:08.536Z,3.03
2019-04-22T15:28:37.456Z,3.53
2019-04-22T15:31:06.010Z,2.92
2019-04-22T15:33:35.243Z,2.80
2019-04-22T15:36:03.953Z,3.43
2019-04-22T15:38:32.404Z,3.10
2019-04-22T15:41:01.057Z,2.87
2019-04-22T15:43:34.641Z,3.20
2019-04-22T15:46:03.714Z,2.60
2019-04-22T15:48:33.791Z,3.73
2019-04-22T15:51:02.859Z,3.00
2019-04-22T15:53:31.705Z,3.23
2019-04-22T15:56:00.852Z,2.77
2019-04-22T15:58:30.183Z,3.20
2019-04-22T16:01:08.898Z,3.37
2019-04-22T16:03:29.139Z,2.97
2019-04-22T16:05:57.828Z,3.10
2019-04-22T16:08:26.714Z,3.17
2019-04-22T16:10:55.863Z,3.37
2019-04-22T16:13:27.311Z,2.87
2019-04-22T16:15:54.594Z,2.97
2019-04-22T16:18:24.442Z,3.13
2019-04-22T16:20:54.308Z,3.27
2019-04-22T16:23:27.891Z,3.03
2019-04-22T16:26:15.229Z,3.43
2019-04-22T16:28:45.134Z,3.10
2019-04-22T16:31:13.646Z,2.67
2019-04-22T16:33:45.409Z,3.03
2019-04-22T16:36:13.092Z,3.23
2019-04-22T16:38:42.762Z,3.17
2019-04-22T16:41:12.740Z,3.25
2019-04-22T16:43:42.719Z,3.60
2019-04-22T16:46:11.689Z,2.67
2019-04-22T16:48:40.207Z,3.67
2019-04-22T16:51:09.879Z,3.43
2019-04-22T16:53:38.981Z,3.23
2019-04-22T16:56:08.710Z,3.27
2019-04-22T16:58:37.230Z,3.07
2019-04-22T17:01:07.525Z,3.00
2019-04-22T17:03:38.707Z,3.10
2019-04-22T17:06:11.946Z,3.00
2019-04-22T17:08:40.458Z,2.90
2019-04-22T17:11:09.696Z,2.80
2019-04-22T17:13:39.908Z,3.10
2019-04-22T17:16:09.867Z,3.23
2019-04-22T17:18:39.401Z,3.00
2019-04-22T17:21:10.151Z,2.40
2019-04-22T17:23:38.313Z,3.67
2019-04-22T17:26:08.431Z,2.57
2019-04-22T17:28:37.485Z,2.50
2019-04-22T17:31:06.679Z,2.73
2019-04-22T17:33:35.257Z,3.30
2019-04-22T17:36:05.276Z,3.20
2019-04-22T17:38:42.784Z,3.37
2019-04-22T17:41:16.205Z,3.00
2019-04-22T17:43:58.793Z,2.53
2019-04-22T17:46:29.176Z,2.83
2019-04-22T17:49:10.261Z,2.30
2019-04-22T17:51:47.753Z,2.90
2019-04-22T17:54:27.181Z,2.83
2019-04-22T17:56:45.519Z,2.60
2019-04-22T17:59:19.021Z,2.60
2019-04-22T18:01:39.761Z,2.30
2019-04-22T18:03:55.543Z,2.10
2019-04-22T18:06:48.883Z,2.73
2019-04-22T18:09:11.315Z,2.33
2019-04-22T18:11:48.328Z,2.30
2019-04-22T18:14:29.966Z,2.63
2019-04-22T18:16:41.359Z,2.13
2019-04-22T18:19:15.531Z,2.57
2019-04-22T18:21:41.202Z,2.70
2019-04-22T18:24:05.086Z,2.83
2019-04-22T18:26:44.695Z,2.50
2019-04-22T18:29:11.522Z,2.50
2019-04-22T18:31:35.618Z,2.70
2019-04-22T18:34:08.260Z,3.17
2019-04-22T18:36:42.834Z,2.40
2019-04-22T18:39:20.863Z,2.50
2019-04-22T18:41:47.131Z,3.20
2019-04-22T18:44:19.971Z,3.10
2019-04-22T18:46:43.049Z,2.37
2019-04-22T18:49:12.387Z,2.37
2019-04-22T18:51:52.967Z,2.70
2019-04-22T18:54:31.005Z,2.60
2019-04-22T18:56:58.789Z,2.50
2019-04-22T18:59:18.470Z,2.60
2019-04-22T19:01:41.963Z,2.45
2019-04-22T19:04:17.180Z,2.43
2019-04-22T19:07:00.408Z,2.97
2019-04-22T19:09:38.238Z,2.90
2019-04-22T19:12:19.665Z,2.60
2019-04-22T19:14:40.556Z,2.37
2019-04-22T19:17:11.937Z,2.50
2019-04-22T19:19:55.949Z,3.03
2019-04-22T19:22:04.778Z,2.87
2019-04-22T19:24:32.336Z,2.50
2019-04-22T19:27:03.025Z,2.20
2019-04-22T19:29:39.905Z,2.60
2019-04-22T19:32:06.873Z,2.30
2019-04-22T19:34:38.487Z,1.87
2019-04-22T19:37:11.426Z,2.40
2019-04-22T19:39:33.080Z,2.70
2019-04-22T19:42:19.023Z,2.37
2019-04-22T19:44:38.555Z,2.65
2019-04-22T19:47:26.834Z,2.30
2019-04-22T19:49:48.102Z,2.30
2019-04-22T19:52:10.895Z,2.53
2019-04-22T19:54:37.737Z,2.37
2019-04-22T19:57:05.751Z,2.47
2019-04-22T19:59:50.826Z,2.30
2019-04-22T20:02:27.477Z,2.60
2019-04-22T20:05:06.533Z,1.90
2019-04-22T20:07:41.593Z,2.27
2019-04-22T20:10:23.593Z,2.10
2019-04-22T20:12:42.813Z,2.20
2019-04-22T20:15:14.246Z,2.20
2019-04-22T20:18:11.685Z,2.17
2019-04-22T20:20:23.032Z,2.27
2019-04-22T20:22:44.433Z,2.40
2019-04-22T20:25:07.624Z,2.57
2019-04-22T20:27:48.185Z,2.23
2019-04-22T20:30:26.621Z,2.23
2019-04-22T20:32:47.154Z,2.97
2019-04-22T20:35:21.299Z,2.13
2019-04-22T20:37:54.789Z,2.20
2019-04-22T20:40:25.277Z,2.30
2019-04-22T20:42:55.574Z,2.40
2019-04-22T20:45:26.995Z,2.23
2019-04-22T20:47:45.370Z,2.20
2019-04-22T20:50:23.573Z,1.63
2019-04-22T20:52:59.244Z,2.00
2019-04-22T20:55:17.966Z,2.20
2019-04-22T20:57:53.380Z,2.33
2019-04-22T21:00:20.009Z,2.37
2019-04-22T21:02:46.116Z,2.02
2019-04-22T21:05:19.700Z,2.60
2019-04-22T21:07:55.623Z,1.93
2019-04-22T21:10:19.853Z,2.17
2019-04-22T21:12:48.274Z,2.10
2019-04-22T21:15:32.125Z,1.40
2019-04-22T21:17:55.341Z,1.90
2019-04-22T21:20:34.775Z,1.73
2019-04-22T21:22:56.012Z,2.00
2019-04-22T21:25:20.776Z,2.10
2019-04-22T21:27:56.882Z,1.63
2019-04-22T21:30:26.466Z,1.80
2019-04-22T21:32:59.034Z,2.03
2019-04-22T21:35:47.509Z,1.90
2019-04-22T21:38:04.420Z,1.97
2019-04-22T21:40:45.614Z,1.97
2019-04-22T21:43:07.105Z,1.95
2019-04-22T21:45:25.241Z,2.20
2019-04-22T21:48:18.092Z,1.80
2019-04-22T21:50:51.545Z,2.27
2019-04-22T21:53:06.770Z,2.00
2019-04-22T21:55:37.892Z,1.93
2019-04-22T21:58:12.246Z,2.05
2019-04-22T22:01:06.522Z,1.90
2019-04-22T22:03:34.593Z,2.27
2019-04-22T22:05:49.176Z,2.00
2019-04-22T22:08:32.109Z,2.33
2019-04-22T22:10:58.410Z,1.87
2019-04-22T22:13:31.851Z,1.80
2019-04-22T22:16:00.113Z,1.80
2019-04-22T22:18:24.199Z,2.07
2019-04-22T22:21:19.630Z,1.75
2019-04-22T22:23:31.837Z,2.30
2019-04-22T22:25:55.220Z,1.90
2019-04-22T22:28:47.775Z,2.20
2019-04-22T22:31:08.855Z,1.80
2019-04-22T22:33:28.306Z,1.87
2019-04-22T22:35:58.373Z,1.60
2019-04-22T22:38:26.996Z,1.80
2019-04-22T22:40:43.848Z,1.70
2019-04-22T22:43:20.374Z,1.70
2019-04-22T22:45:49.144Z,2.20
2019-04-22T22:48:36.534Z,1.85
2019-04-22T22:50:58.507Z,2.08
2019-04-22T22:56:06.311Z,1.47
2019-04-22T22:58:34.804Z,1.93
2019-04-22T23:00:59.069Z,1.70
2019-04-22T23:03:45.614Z,2.43
2019-04-22T23:06:03.256Z,2.13
2019-04-22T23:08:38.181Z,1.80
2019-04-22T23:11:22.298Z,1.60
2019-04-22T23:13:37.073Z,1.52
2019-04-22T23:15:58.394Z,1.77
2019-04-22T23:18:14.033Z,1.90
2019-04-22T23:20:47.527Z,1.40
2019-04-22T23:23:33.038Z,2.20
2019-04-22T23:26:06.782Z,2.37
2019-04-22T23:28:41.159Z,1.93
2019-04-22T23:31:10.788Z,1.83
2019-04-22T23:33:54.679Z,1.90
2019-04-22T23:36:30.621Z,2.20
2019-04-22T23:39:12.178Z,1.87
2019-04-22T23:42:00.373Z,2.13
2019-04-22T23:44:16.012Z,2.27
2019-04-22T23:46:57.083Z,1.90
2019-04-22T23:49:25.061Z,2.00
2019-04-22T23:52:16.287Z,1.93
2019-04-22T23:54:35.873Z,1.82
2019-04-22T23:56:51.947Z,1.70
2019-04-22T23:59:44.561Z,2.03
